createdAt,value
2022-08-03T00:02:20.162Z,20.14
2022-08-03T00:04:48.644Z,20.11
2022-08-03T00:07:17.214Z,20.08
2022-08-03T00:09:45.775Z,20.06
2022-08-03T00:12:14.560Z,20.04
2022-08-03T00:14:43.232Z,20.03
2022-08-03T00:17:12.980Z,20.02
2022-08-03T00:19:41.942Z,19.99
2022-08-03T00:22:10.370Z,19.98
2022-08-03T00:24:38.819Z,19.96
2022-08-03T00:27:07.200Z,19.94
2022-08-03T00:29:59.488Z,19.91
2022-08-03T00:32:24.832Z,19.87
2022-08-03T00:34:57.893Z,19.82
2022-08-03T00:37:41.357Z,19.79
2022-08-03T00:40:13.769Z,19.75
2022-08-03T00:42:50.486Z,19.74
2022-08-03T00:45:19.751Z,19.72
2022-08-03T00:47:48.494Z,19.70
2022-08-03T00:50:18.368Z,19.67
2022-08-03T00:52:47.466Z,19.65
2022-08-03T00:55:17.019Z,19.63
2022-08-03T00:57:46.328Z,19.60
2022-08-03T01:00:18.640Z,19.59
2022-08-03T01:02:47.357Z,19.58
2022-08-03T01:05:15.821Z,19.57
2022-08-03T01:07:59.437Z,19.55
2022-08-03T01:10:37.462Z,19.53
2022-08-03T01:14:03.537Z,19.52
2022-08-03T01:16:17.939Z,19.51
2022-08-03T01:18:52.898Z,19.49
2022-08-03T01:21:28.959Z,19.47
2022-08-03T01:24:06.950Z,19.44
2022-08-03T01:27:03.325Z,19.41
2022-08-03T01:30:01.567Z,19.39
2022-08-03T01:32:53.392Z,19.38
2022-08-03T01:35:38.425Z,19.35
2022-08-03T01:38:11.371Z,19.33
2022-08-03T01:40:41.854Z,19.31
2022-08-03T01:43:15.049Z,19.30
2022-08-03T01:46:04.320Z,19.28
2022-08-03T01:48:34.224Z,19.27
2022-08-03T01:51:03.118Z,19.23
2022-08-03T01:53:33.997Z,19.22
2022-08-03T01:56:05.603Z,19.18
2022-08-03T01:58:38.101Z,19.15
2022-08-03T02:01:09.750Z,19.12
2022-08-03T02:04:00.697Z,19.09
2022-08-03T02:06:59.814Z,19.07
2022-08-03T02:09:23.455Z,19.04
2022-08-03T02:11:53.184Z,19.03
2022-08-03T02:14:26.803Z,19.01
2022-08-03T02:16:57.291Z,18.98
2022-08-03T02:19:32.499Z,18.94
2022-08-03T02:22:06.064Z,18.90
2022-08-03T02:24:34.666Z,18.88
2022-08-03T02:27:06.759Z,18.87
2022-08-03T02:29:41.005Z,18.86
2022-08-03T02:32:14.990Z,18.85
2022-08-03T02:34:48.837Z,18.84
2022-08-03T02:37:19.966Z,18.83
2022-08-03T02:39:52.770Z,18.82
2022-08-03T02:42:24.157Z,18.82
2022-08-03T02:44:55.718Z,18.82
2022-08-03T02:47:26.745Z,18.81
2022-08-03T02:49:57.348Z,18.79
2022-08-03T02:52:32.623Z,18.80
2022-08-03T02:55:04.565Z,18.80
2022-08-03T02:57:35.908Z,18.81
2022-08-03T03:00:07.535Z,18.82
2022-08-03T03:02:36.928Z,18.83
2022-08-03T03:05:55.110Z,18.83
2022-08-03T03:07:57.165Z,18.86
2022-08-03T03:10:27.080Z,18.86
2022-08-03T03:12:58.235Z,18.85
2022-08-03T03:15:29.069Z,18.84
2022-08-03T03:17:59.167Z,18.84
2022-08-03T03:20:30.046Z,18.85
2022-08-03T03:23:01.293Z,18.86
2022-08-03T03:25:36.448Z,18.86
2022-08-03T03:28:06.376Z,18.88
2022-08-03T03:30:35.508Z,18.90
2022-08-03T03:33:04.727Z,18.94
2022-08-03T03:35:38.906Z,18.97
2022-08-03T03:38:08.843Z,19.01
2022-08-03T03:40:39.711Z,19.04
2022-08-03T03:43:11.177Z,19.08
2022-08-03T03:45:42.117Z,19.14
2022-08-03T03:48:11.319Z,19.20
2022-08-03T03:50:40.514Z,19.25
2022-08-03T03:53:11.583Z,19.29
2022-08-03T03:55:57.735Z,19.34
2022-08-03T03:58:29.286Z,19.41
2022-08-03T04:00:57.734Z,19.48
2022-08-03T04:03:26.407Z,19.56
2022-08-03T04:06:13.376Z,19.65
2022-08-03T04:09:00.061Z,19.73
2022-08-03T04:11:32.709Z,19.81
2022-08-03T04:14:07.452Z,19.86
2022-08-03T04:16:43.848Z,19.91
2022-08-03T04:19:22.948Z,19.96
2022-08-03T04:21:56.937Z,20.02
2022-08-03T04:24:29.890Z,20.11
2022-08-03T04:27:00.866Z,20.23
2022-08-03T04:29:33.194Z,20.32
2022-08-03T04:32:05.269Z,20.46
2022-08-03T04:34:33.866Z,20.63
2022-08-03T04:37:09.452Z,20.85
2022-08-03T04:39:42.489Z,21.18
2022-08-03T04:42:13.925Z,21.52
2022-08-03T04:44:45.319Z,21.75
2022-08-03T04:47:13.830Z,21.88
2022-08-03T04:49:42.675Z,22.01
2022-08-03T04:52:11.628Z,22.10
2022-08-03T04:54:45.927Z,22.19
2022-08-03T04:57:23.166Z,22.25
2022-08-03T04:59:56.835Z,22.34
2022-08-03T05:02:31.410Z,22.40
2022-08-03T05:05:00.321Z,22.42
2022-08-03T05:07:35.751Z,22.41
2022-08-03T05:10:15.743Z,22.37
2022-08-03T05:12:47.511Z,22.32
2022-08-03T05:15:17.436Z,22.28
2022-08-03T05:17:45.939Z,22.26
2022-08-03T05:20:16.580Z,22.23
2022-08-03T05:22:48.697Z,22.19
2022-08-03T05:25:19.820Z,22.18
2022-08-03T05:27:52.124Z,22.21
2022-08-03T05:30:31.500Z,22.35
2022-08-03T05:33:03.918Z,22.66
2022-08-03T05:35:57.624Z,23.07
2022-08-03T05:38:34.620Z,23.53
2022-08-03T05:41:22.000Z,23.75
2022-08-03T05:43:54.514Z,23.86
2022-08-03T05:46:23.602Z,23.90
2022-08-03T05:48:52.559Z,23.92
2022-08-03T05:51:24.069Z,23.92
2022-08-03T05:53:52.774Z,23.91
2022-08-03T05:56:24.591Z,23.86
2022-08-03T05:58:53.824Z,23.82
2022-08-03T06:01:22.710Z,23.76
2022-08-03T06:03:56.493Z,23.70
2022-08-03T06:06:28.238Z,23.65
2022-08-03T06:08:59.207Z,23.72
2022-08-03T06:11:27.787Z,23.96
2022-08-03T06:13:56.530Z,24.23
2022-08-03T06:16:25.141Z,24.35
2022-08-03T06:18:53.555Z,24.47
2022-08-03T06:21:25.080Z,24.63
2022-08-03T06:23:56.083Z,24.88
2022-08-03T06:26:28.132Z,25.04
2022-08-03T06:28:56.642Z,25.12
2022-08-03T06:31:33.383Z,25.22
2022-08-03T06:34:30.603Z,25.26
2022-08-03T06:37:01.740Z,25.24
2022-08-03T06:39:31.204Z,25.18
2022-08-03T06:41:59.925Z,25.09
2022-08-03T06:44:28.979Z,25.00
2022-08-03T06:46:58.124Z,24.88
2022-08-03T06:49:27.450Z,24.79
2022-08-03T06:52:04.147Z,24.75
2022-08-03T06:54:34.143Z,24.71
2022-08-03T06:57:03.011Z,24.69
2022-08-03T07:00:10.700Z,24.72
2022-08-03T07:02:20.430Z,24.85
2022-08-03T07:04:49.489Z,24.96
2022-08-03T07:07:20.064Z,25.19
2022-08-03T07:09:56.520Z,25.38
2022-08-03T07:12:27.543Z,25.74
2022-08-03T07:15:00.837Z,26.11
2022-08-03T07:17:35.817Z,26.49
2022-08-03T07:20:08.057Z,26.96
2022-08-03T07:22:36.881Z,27.40
2022-08-03T07:25:07.433Z,27.81
2022-08-03T07:27:36.554Z,28.19
2022-08-03T07:30:08.881Z,28.46
2022-08-03T07:32:50.157Z,28.77
2022-08-03T07:35:24.284Z,29.15
2022-08-03T07:37:54.423Z,29.56
2022-08-03T07:40:23.937Z,29.86
2022-08-03T07:42:58.573Z,30.00
2022-08-03T07:45:27.734Z,29.98
2022-08-03T07:47:56.493Z,29.93
2022-08-03T07:50:31.638Z,30.01
2022-08-03T07:53:00.228Z,30.05
2022-08-03T07:55:29.936Z,30.05
2022-08-03T07:58:07.036Z,30.10
2022-08-03T08:00:36.074Z,30.16
2022-08-03T08:03:05.108Z,30.35
2022-08-03T08:05:33.734Z,30.54
2022-08-03T08:08:02.713Z,30.79
2022-08-03T08:10:32.226Z,31.08
2022-08-03T08:13:01.606Z,31.34
2022-08-03T08:15:31.053Z,31.58
2022-08-03T08:18:01.890Z,31.80
2022-08-03T08:20:38.344Z,32.00
2022-08-03T08:23:31.923Z,32.15
2022-08-03T08:25:57.987Z,32.26
2022-08-03T08:28:32.114Z,32.35
2022-08-03T08:31:01.751Z,32.49
2022-08-03T08:33:48.303Z,32.62
2022-08-03T08:36:19.884Z,32.78
2022-08-03T08:38:49.989Z,32.92
2022-08-03T08:41:18.856Z,33.03
2022-08-03T08:43:47.492Z,33.09
2022-08-03T08:46:22.857Z,33.08
2022-08-03T08:49:04.778Z,33.04
2022-08-03T08:51:54.800Z,33.06
2022-08-03T08:54:27.334Z,33.07
2022-08-03T08:57:02.090Z,33.07
2022-08-03T08:59:47.617Z,33.09
2022-08-03T09:02:18.942Z,33.13
2022-08-03T09:04:49.067Z,33.16
2022-08-03T09:07:29.126Z,33.16
2022-08-03T09:10:11.709Z,33.19
2022-08-03T09:12:44.228Z,33.22
2022-08-03T09:15:21.728Z,33.23
2022-08-03T09:17:53.539Z,33.20
2022-08-03T09:20:24.930Z,33.16
2022-08-03T09:22:59.107Z,33.17
2022-08-03T09:25:33.480Z,33.20
2022-08-03T09:28:10.959Z,33.20
2022-08-03T09:30:42.074Z,33.19
2022-08-03T09:33:12.824Z,33.22
2022-08-03T09:35:54.013Z,33.21
2022-08-03T09:38:26.860Z,33.14
2022-08-03T09:41:00.029Z,33.07
2022-08-03T09:43:47.169Z,32.96
2022-08-03T09:46:15.661Z,32.83
2022-08-03T09:48:44.750Z,32.71
2022-08-03T09:51:32.881Z,32.65
2022-08-03T09:54:03.822Z,32.56
2022-08-03T09:56:46.446Z,32.40
2022-08-03T09:59:28.312Z,32.22
2022-08-03T10:01:59.301Z,32.11
2022-08-03T10:04:28.651Z,32.05
2022-08-03T10:07:05.538Z,31.96
2022-08-03T10:09:34.086Z,31.93
2022-08-03T10:12:10.992Z,31.92
2022-08-03T10:14:46.916Z,31.88
2022-08-03T10:17:16.591Z,31.89
2022-08-03T10:19:46.170Z,31.92
2022-08-03T10:22:16.488Z,31.96
2022-08-03T10:24:55.105Z,32.00
2022-08-03T10:27:31.782Z,32.05
2022-08-03T10:30:05.308Z,32.10
2022-08-03T10:32:38.547Z,32.14
2022-08-03T10:35:19.983Z,32.18
2022-08-03T10:38:00.432Z,32.22
2022-08-03T10:40:47.927Z,32.23
2022-08-03T10:43:22.304Z,32.27
2022-08-03T10:45:52.221Z,32.31
2022-08-03T10:48:21.996Z,32.34
2022-08-03T10:50:52.274Z,32.36
2022-08-03T10:53:36.465Z,32.34
2022-08-03T10:56:35.697Z,32.36
2022-08-03T10:59:14.636Z,32.36
2022-08-03T11:01:58.369Z,32.29
2022-08-03T11:04:30.747Z,32.24
2022-08-03T11:07:20.575Z,32.21
2022-08-03T11:09:51.420Z,32.13
2022-08-03T11:12:28.336Z,32.01
2022-08-03T11:15:04.100Z,31.84
2022-08-03T11:17:46.378Z,31.69
2022-08-03T11:20:47.821Z,31.55
2022-08-03T11:24:03.338Z,31.50
2022-08-03T11:26:26.957Z,31.45
2022-08-03T11:29:29.182Z,31.42
2022-08-03T11:31:58.387Z,31.38
2022-08-03T11:34:27.036Z,31.36
2022-08-03T11:37:21.392Z,31.31
2022-08-03T11:39:54.003Z,31.26
2022-08-03T11:42:47.739Z,31.18
2022-08-03T11:45:19.303Z,31.06
2022-08-03T11:47:53.891Z,30.98
2022-08-03T11:50:24.164Z,30.89
2022-08-03T11:52:54.437Z,30.75
2022-08-03T11:55:24.308Z,30.61
2022-08-03T11:59:19.066Z,30.51
2022-08-03T12:00:49.447Z,30.41
2022-08-03T12:03:20.828Z,30.35
2022-08-03T12:05:52.247Z,30.28
2022-08-03T12:08:31.732Z,30.22
2022-08-03T12:11:02.504Z,30.19
2022-08-03T12:14:43.924Z,30.15
2022-08-03T12:16:29.304Z,30.07
2022-08-03T12:19:00.374Z,30.02
2022-08-03T12:21:29.666Z,30.01
2022-08-03T12:23:59.644Z,30.01
2022-08-03T12:26:29.165Z,30.02
2022-08-03T12:28:59.397Z,30.03
2022-08-03T12:31:27.879Z,30.03
2022-08-03T12:33:59.486Z,30.03
2022-08-03T12:36:29.479Z,30.05
2022-08-03T12:38:59.834Z,30.03
2022-08-03T12:41:34.255Z,30.00
2022-08-03T12:44:03.607Z,29.90
2022-08-03T12:46:34.355Z,29.81
2022-08-03T12:49:08.446Z,29.71
2022-08-03T12:51:55.964Z,29.66
2022-08-03T12:54:26.169Z,29.62
2022-08-03T12:57:02.771Z,29.60
2022-08-03T12:59:35.194Z,29.56
2022-08-03T13:02:14.500Z,29.54
2022-08-03T13:04:45.334Z,29.52
2022-08-03T13:07:15.721Z,29.50
2022-08-03T13:09:47.606Z,29.50
2022-08-03T13:12:17.710Z,29.51
2022-08-03T13:14:47.816Z,29.51
2022-08-03T13:17:17.100Z,29.50
2022-08-03T13:19:47.251Z,29.49
2022-08-03T13:22:18.635Z,29.48
2022-08-03T13:24:48.994Z,29.48
2022-08-03T13:28:02.665Z,29.47
2022-08-03T13:30:10.168Z,29.46
2022-08-03T13:32:40.838Z,29.45
2022-08-03T13:35:10.511Z,29.44
2022-08-03T13:37:39.712Z,29.41
2022-08-03T13:40:11.574Z,29.39
2022-08-03T13:42:40.730Z,29.36
2022-08-03T13:45:18.820Z,29.34
2022-08-03T13:47:48.552Z,29.34
2022-08-03T13:50:18.756Z,29.33
2022-08-03T13:52:47.662Z,29.33
2022-08-03T13:55:16.137Z,29.33
2022-08-03T13:58:03.079Z,29.31
2022-08-03T14:00:34.106Z,29.28
2022-08-03T14:03:12.653Z,29.25
2022-08-03T14:05:43.531Z,29.20
2022-08-03T14:08:12.765Z,29.15
2022-08-03T14:10:44.383Z,29.10
2022-08-03T14:13:16.608Z,29.04
2022-08-03T14:15:50.309Z,28.99
2022-08-03T14:18:28.322Z,28.95
2022-08-03T14:21:03.388Z,28.91
2022-08-03T14:23:35.164Z,28.88
2022-08-03T14:26:04.598Z,28.85
2022-08-03T14:28:33.350Z,28.83
2022-08-03T14:31:02.788Z,28.81
2022-08-03T14:33:31.258Z,28.80
2022-08-03T14:36:00.403Z,28.80
2022-08-03T14:38:29.943Z,28.82
2022-08-03T14:40:59.650Z,28.83
2022-08-03T14:43:34.022Z,28.86
2022-08-03T14:46:02.923Z,28.88
2022-08-03T14:50:31.857Z,28.89
2022-08-03T14:51:20.130Z,28.92
2022-08-03T14:53:48.979Z,28.94
2022-08-03T14:56:17.937Z,28.95
2022-08-03T14:58:46.976Z,28.96
2022-08-03T15:02:04.628Z,28.97
2022-08-03T15:04:06.198Z,28.97
2022-08-03T15:06:34.743Z,28.96
2022-08-03T15:09:21.229Z,28.94
2022-08-03T15:11:52.443Z,28.93
2022-08-03T15:14:22.226Z,28.92
2022-08-03T15:16:57.608Z,28.91
2022-08-03T15:20:02.294Z,28.91
2022-08-03T15:22:16.685Z,28.89
2022-08-03T15:24:49.525Z,28.89
2022-08-03T15:27:18.112Z,28.88
2022-08-03T15:30:05.357Z,28.87
2022-08-03T15:32:40.150Z,28.85
2022-08-03T15:35:09.332Z,28.84
2022-08-03T15:37:37.792Z,28.83
2022-08-03T15:40:08.658Z,28.82
2022-08-03T15:42:37.318Z,28.80
2022-08-03T15:45:08.223Z,28.80
2022-08-03T15:47:37.033Z,28.80
2022-08-03T15:50:09.785Z,28.79
2022-08-03T15:52:46.102Z,28.77
2022-08-03T15:55:15.446Z,28.77
2022-08-03T15:59:04.324Z,28.74
2022-08-03T16:00:34.652Z,28.72
2022-08-03T16:03:03.302Z,28.71
2022-08-03T16:05:32.134Z,28.68
2022-08-03T16:08:06.224Z,28.66
2022-08-03T16:10:37.325Z,28.62
2022-08-03T16:13:06.264Z,28.60
2022-08-03T16:15:38.528Z,28.57
2022-08-03T16:18:07.632Z,28.55
2022-08-03T16:20:36.495Z,28.52
2022-08-03T16:23:11.257Z,28.49
2022-08-03T16:25:41.547Z,28.46
2022-08-03T16:28:14.631Z,28.44
2022-08-03T16:30:45.489Z,28.40
2022-08-03T16:33:17.407Z,28.36
2022-08-03T16:35:49.247Z,28.32
2022-08-03T16:38:19.344Z,28.27
2022-08-03T16:40:51.529Z,28.24
2022-08-03T16:43:21.944Z,28.20
2022-08-03T16:45:50.825Z,28.17
2022-08-03T16:48:20.458Z,28.13
2022-08-03T16:50:49.931Z,28.09
2022-08-03T16:53:33.106Z,28.04
2022-08-03T16:56:10.748Z,27.97
2022-08-03T16:58:44.167Z,27.93
2022-08-03T17:01:21.972Z,27.88
2022-08-03T17:04:02.756Z,27.83
2022-08-03T17:06:36.286Z,27.77
2022-08-03T17:09:09.072Z,27.72
2022-08-03T17:11:47.126Z,27.67
2022-08-03T17:14:22.077Z,27.62
2022-08-03T17:16:57.921Z,27.57
2022-08-03T17:19:29.073Z,27.51
2022-08-03T17:22:01.797Z,27.45
2022-08-03T17:24:35.535Z,27.40
2022-08-03T17:28:42.307Z,27.34
2022-08-03T17:30:09.249Z,27.26
2022-08-03T17:32:42.281Z,27.20
2022-08-03T17:35:12.710Z,27.14
2022-08-03T17:37:58.005Z,27.09
2022-08-03T17:40:33.924Z,27.02
2022-08-03T17:44:13.534Z,26.97
2022-08-03T17:45:54.637Z,26.90
2022-08-03T17:48:25.033Z,26.85
2022-08-03T17:51:04.724Z,26.79
2022-08-03T17:53:38.783Z,26.73
2022-08-03T17:56:38.838Z,26.67
2022-08-03T17:59:16.981Z,26.61
2022-08-03T18:02:47.518Z,26.56
2022-08-03T18:05:21.877Z,26.51
2022-08-03T18:07:59.166Z,26.45
2022-08-03T18:10:36.062Z,26.40
2022-08-03T18:13:10.509Z,26.35
2022-08-03T18:15:43.366Z,26.27
2022-08-03T18:18:16.846Z,26.23
2022-08-03T18:21:04.582Z,26.18
2022-08-03T18:23:37.691Z,26.13
2022-08-03T18:26:11.985Z,26.09
2022-08-03T18:28:45.145Z,26.03
2022-08-03T18:31:59.920Z,25.98
2022-08-03T18:34:19.854Z,25.93
2022-08-03T18:36:59.742Z,25.86
2022-08-03T18:39:30.654Z,25.81
2022-08-03T18:42:02.898Z,25.74
2022-08-03T18:47:52.873Z,25.62
2022-08-03T18:50:29.263Z,25.56
2022-08-03T18:53:16.643Z,25.51
2022-08-03T18:56:01.897Z,25.45
2022-08-03T18:58:40.928Z,25.39
2022-08-03T19:01:57.723Z,25.33
2022-08-03T19:04:13.251Z,25.28
2022-08-03T19:06:45.030Z,25.24
2022-08-03T19:09:27.848Z,25.18
2022-08-03T19:12:13.899Z,25.13
2022-08-03T19:14:56.394Z,25.06
2022-08-03T19:17:29.513Z,25.02
2022-08-03T19:20:01.645Z,24.96
2022-08-03T19:22:32.367Z,24.91
2022-08-03T19:25:02.132Z,24.87
2022-08-03T19:27:32.805Z,24.83
2022-08-03T19:30:11.899Z,24.78
2022-08-03T19:32:50.777Z,24.72
2022-08-03T19:35:46.676Z,24.68
2022-08-03T19:38:10.311Z,24.62
2022-08-03T19:40:44.823Z,24.58
2022-08-03T19:43:26.385Z,24.54
2022-08-03T19:46:15.009Z,24.49
2022-08-03T19:48:51.482Z,24.44
2022-08-03T19:51:26.490Z,24.38
2022-08-03T19:54:14.120Z,24.33
2022-08-03T19:56:47.417Z,24.30
2022-08-03T19:59:19.138Z,24.28
2022-08-03T20:01:50.659Z,24.26
2022-08-03T20:04:20.484Z,24.23
2022-08-03T20:06:52.268Z,24.20
2022-08-03T20:09:30.316Z,24.17
2022-08-03T20:12:00.798Z,24.14
2022-08-03T20:14:33.170Z,24.13
2022-08-03T20:17:01.910Z,24.11
2022-08-03T20:19:32.775Z,24.08
2022-08-03T20:22:08.416Z,24.05
2022-08-03T20:24:52.337Z,24.01
2022-08-03T20:27:24.246Z,23.98
2022-08-03T20:30:06.916Z,23.94
2022-08-03T20:32:37.176Z,23.89
2022-08-03T20:35:09.972Z,23.85
2022-08-03T20:37:40.772Z,23.81
2022-08-03T20:40:13.315Z,23.77
2022-08-03T20:42:43.211Z,23.74
2022-08-03T20:46:00.321Z,23.72
2022-08-03T20:48:02.143Z,23.67
2022-08-03T20:50:30.962Z,23.64
2022-08-03T20:53:08.054Z,23.60
2022-08-03T20:55:47.627Z,23.55
2022-08-03T20:58:35.326Z,23.50
2022-08-03T21:01:05.183Z,23.46
2022-08-03T21:03:40.812Z,23.42
2022-08-03T21:06:27.715Z,23.38
2022-08-03T21:09:12.643Z,23.38
2022-08-03T21:11:47.639Z,23.38
2022-08-03T21:13:04.956Z,25.68
2022-08-03T21:14:35.069Z,23.39
2022-08-03T21:17:25.016Z,23.40
2022-08-03T21:20:01.132Z,23.40
2022-08-03T21:22:32.890Z,23.41
2022-08-03T21:25:05.245Z,23.43
2022-08-03T21:27:34.392Z,23.43
2022-08-03T21:30:11.719Z,23.42
2022-08-03T21:32:44.855Z,23.39
2022-08-03T21:35:15.817Z,23.36
2022-08-03T21:37:46.746Z,23.31
2022-08-03T21:40:16.720Z,23.26
2022-08-03T21:42:47.037Z,23.21
2022-08-03T21:45:17.648Z,23.19
2022-08-03T21:47:47.812Z,23.15
2022-08-03T21:50:17.080Z,23.13
2022-08-03T21:52:48.939Z,23.11
2022-08-03T21:55:20.544Z,23.09
2022-08-03T21:57:53.915Z,23.06
2022-08-03T22:00:23.423Z,23.04
2022-08-03T22:02:55.240Z,23.02
2022-08-03T22:05:42.468Z,23.02
2022-08-03T22:08:13.568Z,23.00
2022-08-03T22:10:44.880Z,22.98
2022-08-03T22:13:14.852Z,22.98
2022-08-03T22:15:44.178Z,22.96
2022-08-03T22:18:12.671Z,22.94
2022-08-03T22:20:41.473Z,22.94
2022-08-03T22:23:11.146Z,22.92
2022-08-03T22:25:40.940Z,22.92
2022-08-03T22:28:12.488Z,22.92
2022-08-03T22:30:42.713Z,22.91
2022-08-03T22:33:14.428Z,22.90
2022-08-03T22:35:47.468Z,22.87
2022-08-03T22:38:18.488Z,22.86
2022-08-03T22:40:49.232Z,22.85
2022-08-03T22:43:21.874Z,22.84
2022-08-03T22:46:09.066Z,22.84
2022-08-03T22:48:41.196Z,22.81
2022-08-03T22:51:11.162Z,22.81
2022-08-03T22:53:40.477Z,22.79
2022-08-03T22:56:09.978Z,22.78
2022-08-03T22:58:38.664Z,22.77
2022-08-03T23:01:11.992Z,22.74
2022-08-03T23:04:00.749Z,22.70
2022-08-03T23:06:35.503Z,22.67
2022-08-03T23:09:07.661Z,22.64
2022-08-03T23:11:38.377Z,22.61
2022-08-03T23:14:15.908Z,22.57
2022-08-03T23:16:46.614Z,22.53
2022-08-03T23:19:25.365Z,22.49
2022-08-03T23:22:02.371Z,22.45
2022-08-03T23:24:36.513Z,22.42
2022-08-03T23:27:06.290Z,22.38
2022-08-03T23:29:37.447Z,22.35
2022-08-03T23:32:07.894Z,22.31
2022-08-03T23:34:58.260Z,22.27
2022-08-03T23:37:27.357Z,22.23
2022-08-03T23:39:57.226Z,22.20
2022-08-03T23:42:27.319Z,22.16
2022-08-03T23:44:59.505Z,22.11
2022-08-03T23:47:46.519Z,22.07
2022-08-03T23:50:17.378Z,22.02
2022-08-03T23:52:56.940Z,21.99
2022-08-03T23:55:40.394Z,21.95
2022-08-03T23:58:18.736Z,21.90
